sensor_id;sensor_type;location;lat;lon;timestamp;P1;durP1;ratioP1;P2;durP2;ratioP2
7334;SDS011;3708;42.632;23.378;2022-09-03T00:00:05;7.97;;;6.17;;
7334;SDS011;3708;42.632;23.378;2022-09-03T00:02:39;8.57;;;5.83;;
7334;SDS011;3708;42.632;23.378;2022-09-03T00:05:12;8.73;;;6.40;;
7334;SDS011;3708;42.632;23.378;2022-09-03T00:07:46;7.83;;;5.60;;
7334;SDS011;3708;42.632;23.378;2022-09-03T00:10:20;6.97;;;5.50;;
7334;SDS011;3708;42.632;23.378;2022-09-03T00:12:55;6.60;;;5.30;;
7334;SDS011;3708;42.632;23.378;2022-09-03T00:15:24;10.47;;;6.03;;
7334;SDS011;3708;42.632;23.378;2022-09-03T00:17:53;7.67;;;6.07;;
7334;SDS011;3708;42.632;23.378;2022-09-03T00:20:26;7.57;;;5.77;;
7334;SDS011;3708;42.632;23.378;2022-09-03T00:22:57;7.93;;;5.80;;
7334;SDS011;3708;42.632;23.378;2022-09-03T00:25:28;9.03;;;5.93;;
7334;SDS011;3708;42.632;23.378;2022-09-03T00:28:05;6.97;;;5.43;;
7334;SDS011;3708;42.632;23.378;2022-09-03T00:33:32;7.00;;;5.93;;
7334;SDS011;3708;42.632;23.378;2022-09-03T00:36:05;7.47;;;5.40;;
7334;SDS011;3708;42.632;23.378;2022-09-03T00:38:40;6.30;;;5.47;;
7334;SDS011;3708;42.632;23.378;2022-09-03T00:41:08;10.27;;;5.73;;
7334;SDS011;3708;42.632;23.378;2022-09-03T00:43:49;9.00;;;5.97;;
7334;SDS011;3708;42.632;23.378;2022-09-03T00:46:28;8.07;;;5.67;;
7334;SDS011;3708;42.632;23.378;2022-09-03T00:49:06;8.17;;;6.47;;
7334;SDS011;3708;42.632;23.378;2022-09-03T00:51:52;11.27;;;6.40;;
7334;SDS011;3708;42.632;23.378;2022-09-03T00:54:29;7.17;;;5.83;;
7334;SDS011;3708;42.632;23.378;2022-09-03T00:57:12;7.67;;;6.13;;
7334;SDS011;3708;42.632;23.378;2022-09-03T00:59:52;7.57;;;5.97;;
7334;SDS011;3708;42.632;23.378;2022-09-03T01:02:29;8.10;;;5.80;;
7334;SDS011;3708;42.632;23.378;2022-09-03T01:05:14;7.70;;;6.27;;
7334;SDS011;3708;42.632;23.378;2022-09-03T01:07:57;10.50;;;6.03;;
7334;SDS011;3708;42.632;23.378;2022-09-03T01:10:39;8.37;;;6.43;;
7334;SDS011;3708;42.632;23.378;2022-09-03T01:13:18;11.03;;;6.83;;
7334;SDS011;3708;42.632;23.378;2022-09-03T01:15:51;8.67;;;6.83;;
7334;SDS011;3708;42.632;23.378;2022-09-03T01:18:31;8.37;;;6.23;;
7334;SDS011;3708;42.632;23.378;2022-09-03T01:21:15;7.80;;;6.57;;
7334;SDS011;3708;42.632;23.378;2022-09-03T01:24:05;7.77;;;6.40;;
7334;SDS011;3708;42.632;23.378;2022-09-03T01:26:59;9.40;;;6.67;;
7334;SDS011;3708;42.632;23.378;2022-09-03T01:29:42;8.10;;;5.67;;
7334;SDS011;3708;42.632;23.378;2022-09-03T01:32:21;7.50;;;6.10;;
7334;SDS011;3708;42.632;23.378;2022-09-03T01:34:53;7.17;;;5.70;;
7334;SDS011;3708;42.632;23.378;2022-09-03T01:37:29;8.13;;;6.50;;
7334;SDS011;3708;42.632;23.378;2022-09-03T01:40:09;10.77;;;6.83;;
7334;SDS011;3708;42.632;23.378;2022-09-03T01:42:48;13.20;;;6.07;;
7334;SDS011;3708;42.632;23.378;2022-09-03T01:45:29;6.83;;;5.13;;
7334;SDS011;3708;42.632;23.378;2022-09-03T01:48:13;9.30;;;6.17;;
7334;SDS011;3708;42.632;23.378;2022-09-03T01:50:56;7.63;;;6.37;;
7334;SDS011;3708;42.632;23.378;2022-09-03T01:53:33;8.03;;;5.77;;
7334;SDS011;3708;42.632;23.378;2022-09-03T01:56:16;7.73;;;6.17;;
7334;SDS011;3708;42.632;23.378;2022-09-03T01:58:55;8.03;;;5.77;;
7334;SDS011;3708;42.632;23.378;2022-09-03T02:01:30;8.47;;;6.80;;
7334;SDS011;3708;42.632;23.378;2022-09-03T02:04:00;7.80;;;6.13;;
7334;SDS011;3708;42.632;23.378;2022-09-03T02:06:28;7.07;;;5.70;;
7334;SDS011;3708;42.632;23.378;2022-09-03T02:08:56;7.03;;;5.93;;
7334;SDS011;3708;42.632;23.378;2022-09-03T02:11:23;6.60;;;5.90;;
7334;SDS011;3708;42.632;23.378;2022-09-03T02:13:51;11.10;;;6.90;;
7334;SDS011;3708;42.632;23.378;2022-09-03T02:16:22;7.53;;;6.40;;
7334;SDS011;3708;42.632;23.378;2022-09-03T02:18:56;7.73;;;5.87;;
7334;SDS011;3708;42.632;23.378;2022-09-03T02:21:25;8.37;;;5.87;;
7334;SDS011;3708;42.632;23.378;2022-09-03T02:23:57;8.43;;;5.83;;
7334;SDS011;3708;42.632;23.378;2022-09-03T02:26:25;7.43;;;5.67;;
7334;SDS011;3708;42.632;23.378;2022-09-03T02:28:52;7.03;;;5.70;;
7334;SDS011;3708;42.632;23.378;2022-09-03T02:31:21;7.47;;;6.03;;
7334;SDS011;3708;42.632;23.378;2022-09-03T02:33:48;7.23;;;5.80;;
7334;SDS011;3708;42.632;23.378;2022-09-03T02:36:18;8.03;;;6.27;;
7334;SDS011;3708;42.632;23.378;2022-09-03T02:38:50;7.33;;;6.00;;
7334;SDS011;3708;42.632;23.378;2022-09-03T02:41:16;6.73;;;6.03;;
7334;SDS011;3708;42.632;23.378;2022-09-03T02:43:44;7.77;;;5.93;;
7334;SDS011;3708;42.632;23.378;2022-09-03T02:46:16;7.00;;;5.47;;
7334;SDS011;3708;42.632;23.378;2022-09-03T02:48:46;7.30;;;6.17;;
7334;SDS011;3708;42.632;23.378;2022-09-03T02:51:13;7.50;;;6.30;;
7334;SDS011;3708;42.632;23.378;2022-09-03T02:53:42;7.47;;;6.03;;
7334;SDS011;3708;42.632;23.378;2022-09-03T02:56:09;8.63;;;6.50;;
7334;SDS011;3708;42.632;23.378;2022-09-03T02:58:36;8.77;;;6.17;;
7334;SDS011;3708;42.632;23.378;2022-09-03T03:01:04;8.97;;;6.83;;
7334;SDS011;3708;42.632;23.378;2022-09-03T03:03:31;11.60;;;7.03;;
7334;SDS011;3708;42.632;23.378;2022-09-03T03:05:59;8.40;;;5.80;;
7334;SDS011;3708;42.632;23.378;2022-09-03T03:08:28;10.80;;;7.17;;
7334;SDS011;3708;42.632;23.378;2022-09-03T03:10:58;7.60;;;6.37;;
7334;SDS011;3708;42.632;23.378;2022-09-03T03:13:26;9.50;;;7.23;;
7334;SDS011;3708;42.632;23.378;2022-09-03T03:15:55;8.87;;;6.83;;
7334;SDS011;3708;42.632;23.378;2022-09-03T03:18:22;8.43;;;6.43;;
7334;SDS011;3708;42.632;23.378;2022-09-03T03:20:49;10.10;;;7.37;;
7334;SDS011;3708;42.632;23.378;2022-09-03T03:23:16;8.67;;;6.67;;
7334;SDS011;3708;42.632;23.378;2022-09-03T03:25:44;9.90;;;6.60;;
7334;SDS011;3708;42.632;23.378;2022-09-03T03:28:12;13.13;;;7.80;;
7334;SDS011;3708;42.632;23.378;2022-09-03T03:30:39;9.13;;;6.87;;
7334;SDS011;3708;42.632;23.378;2022-09-03T03:33:07;8.70;;;7.17;;
7334;SDS011;3708;42.632;23.378;2022-09-03T03:35:34;10.33;;;6.60;;
7334;SDS011;3708;42.632;23.378;2022-09-03T03:38:01;12.77;;;6.80;;
7334;SDS011;3708;42.632;23.378;2022-09-03T03:40:29;11.23;;;6.83;;
7334;SDS011;3708;42.632;23.378;2022-09-03T03:42:56;7.17;;;6.27;;
7334;SDS011;3708;42.632;23.378;2022-09-03T03:45:25;6.90;;;6.17;;
7334;SDS011;3708;42.632;23.378;2022-09-03T03:47:55;11.57;;;7.93;;
7334;SDS011;3708;42.632;23.378;2022-09-03T03:50:23;7.67;;;6.27;;
7334;SDS011;3708;42.632;23.378;2022-09-03T03:52:52;8.87;;;7.37;;
7334;SDS011;3708;42.632;23.378;2022-09-03T03:55:19;8.20;;;6.63;;
7334;SDS011;3708;42.632;23.378;2022-09-03T03:57:45;8.67;;;6.53;;
7334;SDS011;3708;42.632;23.378;2022-09-03T04:00:13;8.90;;;6.40;;
7334;SDS011;3708;42.632;23.378;2022-09-03T04:02:42;7.67;;;6.07;;
7334;SDS011;3708;42.632;23.378;2022-09-03T04:05:09;10.03;;;6.20;;
7334;SDS011;3708;42.632;23.378;2022-09-03T04:07:36;13.47;;;7.00;;
7334;SDS011;3708;42.632;23.378;2022-09-03T04:10:03;8.97;;;6.67;;
7334;SDS011;3708;42.632;23.378;2022-09-03T04:12:31;7.53;;;6.67;;
7334;SDS011;3708;42.632;23.378;2022-09-03T04:14:58;8.13;;;6.37;;
7334;SDS011;3708;42.632;23.378;2022-09-03T04:17:26;10.03;;;6.90;;
7334;SDS011;3708;42.632;23.378;2022-09-03T04:19:55;11.00;;;7.50;;
7334;SDS011;3708;42.632;23.378;2022-09-03T04:22:21;9.30;;;7.20;;
7334;SDS011;3708;42.632;23.378;2022-09-03T04:24:48;8.90;;;7.40;;
7334;SDS011;3708;42.632;23.378;2022-09-03T04:27:16;8.77;;;7.03;;
7334;SDS011;3708;42.632;23.378;2022-09-03T04:29:43;9.83;;;6.87;;
7334;SDS011;3708;42.632;23.378;2022-09-03T04:32:10;7.63;;;6.33;;
7334;SDS011;3708;42.632;23.378;2022-09-03T04:34:55;9.50;;;6.60;;
7334;SDS011;3708;42.632;23.378;2022-09-03T04:37:22;8.80;;;6.80;;
7334;SDS011;3708;42.632;23.378;2022-09-03T04:39:49;8.00;;;6.83;;
7334;SDS011;3708;42.632;23.378;2022-09-03T04:42:18;7.53;;;6.63;;
7334;SDS011;3708;42.632;23.378;2022-09-03T04:44:45;8.73;;;6.73;;
7334;SDS011;3708;42.632;23.378;2022-09-03T04:47:12;10.23;;;6.40;;
7334;SDS011;3708;42.632;23.378;2022-09-03T04:49:40;8.47;;;6.53;;
7334;SDS011;3708;42.632;23.378;2022-09-03T04:52:08;7.77;;;6.30;;
7334;SDS011;3708;42.632;23.378;2022-09-03T04:54:43;8.17;;;6.87;;
7334;SDS011;3708;42.632;23.378;2022-09-03T04:57:10;7.87;;;6.10;;
7334;SDS011;3708;42.632;23.378;2022-09-03T04:59:39;10.00;;;6.80;;
7334;SDS011;3708;42.632;23.378;2022-09-03T05:02:21;7.90;;;6.43;;
7334;SDS011;3708;42.632;23.378;2022-09-03T05:04:50;8.13;;;6.67;;
7334;SDS011;3708;42.632;23.378;2022-09-03T05:07:19;7.67;;;6.83;;
7334;SDS011;3708;42.632;23.378;2022-09-03T05:09:46;8.07;;;5.97;;
7334;SDS011;3708;42.632;23.378;2022-09-03T05:12:13;7.60;;;6.40;;
7334;SDS011;3708;42.632;23.378;2022-09-03T05:14:41;7.17;;;5.97;;
7334;SDS011;3708;42.632;23.378;2022-09-03T05:17:08;6.90;;;5.33;;
7334;SDS011;3708;42.632;23.378;2022-09-03T05:19:35;5.93;;;5.20;;
7334;SDS011;3708;42.632;23.378;2022-09-03T05:22:02;7.47;;;5.57;;
7334;SDS011;3708;42.632;23.378;2022-09-03T05:24:30;7.60;;;6.03;;
7334;SDS011;3708;42.632;23.378;2022-09-03T05:26:57;7.50;;;6.47;;
7334;SDS011;3708;42.632;23.378;2022-09-03T05:29:24;6.93;;;6.20;;
7334;SDS011;3708;42.632;23.378;2022-09-03T05:31:51;10.97;;;6.73;;
7334;SDS011;3708;42.632;23.378;2022-09-03T05:34:18;7.60;;;6.77;;
7334;SDS011;3708;42.632;23.378;2022-09-03T05:36:45;13.70;;;6.80;;
7334;SDS011;3708;42.632;23.378;2022-09-03T05:39:14;7.33;;;6.33;;
7334;SDS011;3708;42.632;23.378;2022-09-03T05:41:42;6.90;;;5.83;;
7334;SDS011;3708;42.632;23.378;2022-09-03T05:44:10;9.70;;;6.83;;
7334;SDS011;3708;42.632;23.378;2022-09-03T05:46:38;10.33;;;6.23;;
7334;SDS011;3708;42.632;23.378;2022-09-03T05:49:06;9.43;;;6.63;;
7334;SDS011;3708;42.632;23.378;2022-09-03T05:51:35;6.17;;;5.27;;
7334;SDS011;3708;42.632;23.378;2022-09-03T05:54:04;7.63;;;6.23;;
7334;SDS011;3708;42.632;23.378;2022-09-03T05:56:32;10.60;;;6.53;;
7334;SDS011;3708;42.632;23.378;2022-09-03T05:59:02;8.50;;;6.53;;
7334;SDS011;3708;42.632;23.378;2022-09-03T06:01:33;6.43;;;5.10;;
7334;SDS011;3708;42.632;23.378;2022-09-03T06:04:02;7.60;;;5.40;;
7334;SDS011;3708;42.632;23.378;2022-09-03T06:06:32;9.97;;;6.53;;
7334;SDS011;3708;42.632;23.378;2022-09-03T06:09:00;8.73;;;5.73;;
7334;SDS011;3708;42.632;23.378;2022-09-03T06:11:30;6.60;;;5.70;;
7334;SDS011;3708;42.632;23.378;2022-09-03T06:13:59;6.17;;;5.50;;
7334;SDS011;3708;42.632;23.378;2022-09-03T06:16:31;10.17;;;5.87;;
7334;SDS011;3708;42.632;23.378;2022-09-03T06:19:00;7.83;;;6.27;;
7334;SDS011;3708;42.632;23.378;2022-09-03T06:21:30;11.73;;;6.90;;
7334;SDS011;3708;42.632;23.378;2022-09-03T06:23:57;7.00;;;5.63;;
7334;SDS011;3708;42.632;23.378;2022-09-03T06:26:25;13.00;;;5.90;;
7334;SDS011;3708;42.632;23.378;2022-09-03T06:28:58;8.67;;;5.77;;
7334;SDS011;3708;42.632;23.378;2022-09-03T06:31:25;9.17;;;6.30;;
7334;SDS011;3708;42.632;23.378;2022-09-03T06:33:53;7.00;;;5.87;;
7334;SDS011;3708;42.632;23.378;2022-09-03T06:36:21;6.60;;;5.57;;
7334;SDS011;3708;42.632;23.378;2022-09-03T06:38:51;6.90;;;5.90;;
7334;SDS011;3708;42.632;23.378;2022-09-03T06:41:20;8.47;;;5.20;;
7334;SDS011;3708;42.632;23.378;2022-09-03T06:43:49;7.87;;;5.33;;
7334;SDS011;3708;42.632;23.378;2022-09-03T06:46:19;7.50;;;4.73;;
7334;SDS011;3708;42.632;23.378;2022-09-03T06:48:48;7.13;;;5.03;;
7334;SDS011;3708;42.632;23.378;2022-09-03T06:51:21;6.07;;;5.03;;
7334;SDS011;3708;42.632;23.378;2022-09-03T06:53:50;7.17;;;6.30;;
7334;SDS011;3708;42.632;23.378;2022-09-03T06:56:26;7.77;;;6.37;;
7334;SDS011;3708;42.632;23.378;2022-09-03T06:58:58;8.20;;;6.73;;
7334;SDS011;3708;42.632;23.378;2022-09-03T07:01:31;10.93;;;6.80;;
7334;SDS011;3708;42.632;23.378;2022-09-03T07:04:00;7.80;;;6.73;;
7334;SDS011;3708;42.632;23.378;2022-09-03T07:06:30;7.73;;;6.17;;
7334;SDS011;3708;42.632;23.378;2022-09-03T07:09:10;9.60;;;6.40;;
7334;SDS011;3708;42.632;23.378;2022-09-03T07:11:39;9.30;;;7.27;;
7334;SDS011;3708;42.632;23.378;2022-09-03T07:14:13;9.73;;;6.40;;
7334;SDS011;3708;42.632;23.378;2022-09-03T07:16:43;7.20;;;5.90;;
7334;SDS011;3708;42.632;23.378;2022-09-03T07:19:10;8.40;;;6.00;;
7334;SDS011;3708;42.632;23.378;2022-09-03T07:21:39;6.50;;;5.80;;
7334;SDS011;3708;42.632;23.378;2022-09-03T07:24:07;8.33;;;5.67;;
7334;SDS011;3708;42.632;23.378;2022-09-03T07:26:35;6.13;;;5.53;;
7334;SDS011;3708;42.632;23.378;2022-09-03T07:29:04;5.50;;;4.90;;
7334;SDS011;3708;42.632;23.378;2022-09-03T07:31:32;11.73;;;6.93;;
7334;SDS011;3708;42.632;23.378;2022-09-03T07:34:00;5.93;;;5.10;;
7334;SDS011;3708;42.632;23.378;2022-09-03T07:36:30;7.93;;;6.30;;
7334;SDS011;3708;42.632;23.378;2022-09-03T07:39:04;7.27;;;5.73;;
7334;SDS011;3708;42.632;23.378;2022-09-03T07:41:31;8.37;;;5.30;;
7334;SDS011;3708;42.632;23.378;2022-09-03T07:43:59;6.13;;;5.13;;
7334;SDS011;3708;42.632;23.378;2022-09-03T07:46:30;6.20;;;5.53;;
7334;SDS011;3708;42.632;23.378;2022-09-03T07:48:58;6.80;;;5.83;;
7334;SDS011;3708;42.632;23.378;2022-09-03T07:51:27;5.70;;;5.17;;
7334;SDS011;3708;42.632;23.378;2022-09-03T07:53:57;8.27;;;5.50;;
7334;SDS011;3708;42.632;23.378;2022-09-03T07:56:27;7.87;;;5.33;;
7334;SDS011;3708;42.632;23.378;2022-09-03T07:58:56;6.93;;;5.47;;
7334;SDS011;3708;42.632;23.378;2022-09-03T08:01:24;5.33;;;4.80;;
7334;SDS011;3708;42.632;23.378;2022-09-03T08:04:00;5.47;;;4.97;;
7334;SDS011;3708;42.632;23.378;2022-09-03T08:06:28;5.87;;;4.77;;
7334;SDS011;3708;42.632;23.378;2022-09-03T08:08:56;5.73;;;5.07;;
7334;SDS011;3708;42.632;23.378;2022-09-03T08:11:25;7.03;;;5.27;;
7334;SDS011;3708;42.632;23.378;2022-09-03T08:13:56;6.97;;;5.27;;
7334;SDS011;3708;42.632;23.378;2022-09-03T08:16:27;4.80;;;4.40;;
7334;SDS011;3708;42.632;23.378;2022-09-03T08:18:57;5.30;;;4.80;;
7334;SDS011;3708;42.632;23.378;2022-09-03T08:21:24;5.67;;;5.07;;
7334;SDS011;3708;42.632;23.378;2022-09-03T08:23:56;5.87;;;5.20;;
7334;SDS011;3708;42.632;23.378;2022-09-03T08:26:29;5.10;;;4.60;;
7334;SDS011;3708;42.632;23.378;2022-09-03T08:29:04;5.80;;;5.07;;
7334;SDS011;3708;42.632;23.378;2022-09-03T08:31:34;5.30;;;4.53;;
7334;SDS011;3708;42.632;23.378;2022-09-03T08:34:04;5.97;;;4.73;;
7334;SDS011;3708;42.632;23.378;2022-09-03T08:36:36;11.63;;;4.90;;
7334;SDS011;3708;42.632;23.378;2022-09-03T08:39:07;8.30;;;5.13;;
7334;SDS011;3708;42.632;23.378;2022-09-03T08:41:42;8.27;;;5.30;;
7334;SDS011;3708;42.632;23.378;2022-09-03T08:44:33;12.47;;;5.47;;
7334;SDS011;3708;42.632;23.378;2022-09-03T08:47:19;6.27;;;4.80;;
7334;SDS011;3708;42.632;23.378;2022-09-03T08:49:57;4.80;;;4.30;;
7334;SDS011;3708;42.632;23.378;2022-09-03T08:52:31;5.20;;;4.70;;
7334;SDS011;3708;42.632;23.378;2022-09-03T08:55:13;5.90;;;5.00;;
7334;SDS011;3708;42.632;23.378;2022-09-03T08:58:09;9.57;;;5.03;;
7334;SDS011;3708;42.632;23.378;2022-09-03T09:00:46;12.33;;;5.20;;
7334;SDS011;3708;42.632;23.378;2022-09-03T09:03:35;4.57;;;4.07;;
7334;SDS011;3708;42.632;23.378;2022-09-03T09:06:28;5.73;;;5.10;;
7334;SDS011;3708;42.632;23.378;2022-09-03T09:09:29;5.73;;;5.13;;
7334;SDS011;3708;42.632;23.378;2022-09-03T09:12:34;5.47;;;4.57;;
7334;SDS011;3708;42.632;23.378;2022-09-03T09:18:53;5.73;;;4.40;;
7334;SDS011;3708;42.632;23.378;2022-09-03T09:22:08;5.30;;;4.80;;
7334;SDS011;3708;42.632;23.378;2022-09-03T09:24:50;5.30;;;4.80;;
7334;SDS011;3708;42.632;23.378;2022-09-03T09:27:30;5.83;;;5.20;;
7334;SDS011;3708;42.632;23.378;2022-09-03T09:30:20;7.23;;;5.63;;
7334;SDS011;3708;42.632;23.378;2022-09-03T09:32:47;4.90;;;4.40;;
7334;SDS011;3708;42.632;23.378;2022-09-03T09:35:16;5.90;;;5.40;;
7334;SDS011;3708;42.632;23.378;2022-09-03T09:37:45;7.77;;;4.77;;
7334;SDS011;3708;42.632;23.378;2022-09-03T09:40:23;6.40;;;5.27;;
7334;SDS011;3708;42.632;23.378;2022-09-03T09:43:07;6.23;;;5.63;;
7334;SDS011;3708;42.632;23.378;2022-09-03T09:45:37;5.97;;;5.37;;
7334;SDS011;3708;42.632;23.378;2022-09-03T09:48:12;7.77;;;5.50;;
7334;SDS011;3708;42.632;23.378;2022-09-03T09:50:45;6.30;;;5.50;;
7334;SDS011;3708;42.632;23.378;2022-09-03T09:53:12;6.27;;;5.13;;
7334;SDS011;3708;42.632;23.378;2022-09-03T09:55:49;5.37;;;4.87;;
7334;SDS011;3708;42.632;23.378;2022-09-03T09:58:18;5.53;;;4.87;;
7334;SDS011;3708;42.632;23.378;2022-09-03T10:01:02;5.57;;;4.97;;
7334;SDS011;3708;42.632;23.378;2022-09-03T10:03:39;6.93;;;4.83;;
7334;SDS011;3708;42.632;23.378;2022-09-03T10:06:15;6.40;;;4.60;;
7334;SDS011;3708;42.632;23.378;2022-09-03T10:09:06;5.40;;;4.90;;
7334;SDS011;3708;42.632;23.378;2022-09-03T10:11:40;6.67;;;4.97;;
7334;SDS011;3708;42.632;23.378;2022-09-03T10:14:25;5.57;;;5.00;;
7334;SDS011;3708;42.632;23.378;2022-09-03T10:17:02;6.87;;;5.23;;
7334;SDS011;3708;42.632;23.378;2022-09-03T10:19:48;6.17;;;4.30;;
7334;SDS011;3708;42.632;23.378;2022-09-03T10:22:42;5.60;;;5.00;;
7334;SDS011;3708;42.632;23.378;2022-09-03T10:25:18;6.37;;;5.00;;
7334;SDS011;3708;42.632;23.378;2022-09-03T10:27:49;5.63;;;4.97;;
7334;SDS011;3708;42.632;23.378;2022-09-03T10:30:21;5.87;;;5.27;;
7334;SDS011;3708;42.632;23.378;2022-09-03T10:32:56;5.10;;;4.60;;
7334;SDS011;3708;42.632;23.378;2022-09-03T10:35:38;4.78;;;4.28;;
7334;SDS011;3708;42.632;23.378;2022-09-03T10:38:17;7.95;;;4.65;;
7334;SDS011;3708;42.632;23.378;2022-09-03T10:40:54;7.20;;;4.93;;
7334;SDS011;3708;42.632;23.378;2022-09-03T10:46:36;6.97;;;4.72;;
7334;SDS011;3708;42.632;23.378;2022-09-03T10:49:18;5.82;;;5.10;;
7334;SDS011;3708;42.632;23.378;2022-09-03T10:52:00;5.07;;;4.43;;
7334;SDS011;3708;42.632;23.378;2022-09-03T10:54:47;5.07;;;4.57;;
7334;SDS011;3708;42.632;23.378;2022-09-03T10:57:30;5.33;;;4.83;;
7334;SDS011;3708;42.632;23.378;2022-09-03T11:00:10;5.45;;;4.93;;
7334;SDS011;3708;42.632;23.378;2022-09-03T11:05:55;5.90;;;5.17;;
7334;SDS011;3708;42.632;23.378;2022-09-03T11:08:30;6.70;;;5.07;;
7334;SDS011;3708;42.632;23.378;2022-09-03T11:14:14;5.47;;;4.15;;
7334;SDS011;3708;42.632;23.378;2022-09-03T11:16:53;5.20;;;4.70;;
7334;SDS011;3708;42.632;23.378;2022-09-03T11:19:34;4.90;;;4.40;;
7334;SDS011;3708;42.632;23.378;2022-09-03T11:22:30;5.40;;;4.70;;
7334;SDS011;3708;42.632;23.378;2022-09-03T11:24:59;6.80;;;4.82;;
7334;SDS011;3708;42.632;23.378;2022-09-03T11:27:34;5.10;;;4.43;;
7334;SDS011;3708;42.632;23.378;2022-09-03T11:30:24;4.70;;;3.90;;
7334;SDS011;3708;42.632;23.378;2022-09-03T11:33:05;4.38;;;3.97;;
7334;SDS011;3708;42.632;23.378;2022-09-03T11:35:41;5.60;;;4.35;;
7334;SDS011;3708;42.632;23.378;2022-09-03T11:38:18;4.40;;;3.78;;
7334;SDS011;3708;42.632;23.378;2022-09-03T11:41:11;5.25;;;3.30;;
7334;SDS011;3708;42.632;23.378;2022-09-03T11:43:56;4.15;;;3.47;;
7334;SDS011;3708;42.632;23.378;2022-09-03T11:46:31;5.55;;;3.72;;
7334;SDS011;3708;42.632;23.378;2022-09-03T11:49:08;5.40;;;3.63;;
7334;SDS011;3708;42.632;23.378;2022-09-03T11:51:54;6.60;;;3.63;;
7334;SDS011;3708;42.632;23.378;2022-09-03T11:54:59;3.70;;;3.40;;
7334;SDS011;3708;42.632;23.378;2022-09-03T11:57:43;3.85;;;3.50;;
7334;SDS011;3708;42.632;23.378;2022-09-03T12:03:36;3.72;;;3.42;;
7334;SDS011;3708;42.632;23.378;2022-09-03T12:06:20;5.10;;;4.47;;
7334;SDS011;3708;42.632;23.378;2022-09-03T12:12:07;4.10;;;3.70;;
7334;SDS011;3708;42.632;23.378;2022-09-03T12:14:46;3.47;;;3.17;;
7334;SDS011;3708;42.632;23.378;2022-09-03T12:17:25;3.83;;;3.42;;
7334;SDS011;3708;42.632;23.378;2022-09-03T12:19:57;5.20;;;4.38;;
7334;SDS011;3708;42.632;23.378;2022-09-03T12:22:25;4.78;;;3.88;;
7334;SDS011;3708;42.632;23.378;2022-09-03T12:24:54;5.15;;;3.63;;
7334;SDS011;3708;42.632;23.378;2022-09-03T12:27:22;3.42;;;3.08;;
7334;SDS011;3708;42.632;23.378;2022-09-03T12:29:53;4.95;;;3.72;;
7334;SDS011;3708;42.632;23.378;2022-09-03T12:32:27;4.97;;;4.00;;
7334;SDS011;3708;42.632;23.378;2022-09-03T12:34:56;4.20;;;3.70;;
7334;SDS011;3708;42.632;23.378;2022-09-03T12:37:24;3.88;;;3.47;;
7334;SDS011;3708;42.632;23.378;2022-09-03T12:39:52;4.40;;;3.58;;
7334;SDS011;3708;42.632;23.378;2022-09-03T12:42:22;4.10;;;3.58;;
7334;SDS011;3708;42.632;23.378;2022-09-03T12:44:51;4.22;;;3.63;;
7334;SDS011;3708;42.632;23.378;2022-09-03T12:47:19;3.53;;;3.22;;
7334;SDS011;3708;42.632;23.378;2022-09-03T12:49:49;5.78;;;3.92;;
7334;SDS011;3708;42.632;23.378;2022-09-03T12:52:18;4.45;;;3.92;;
7334;SDS011;3708;42.632;23.378;2022-09-03T12:54:50;4.60;;;3.80;;
7334;SDS011;3708;42.632;23.378;2022-09-03T12:57:22;4.55;;;3.58;;
7334;SDS011;3708;42.632;23.378;2022-09-03T12:59:55;3.75;;;3.42;;
7334;SDS011;3708;42.632;23.378;2022-09-03T13:02:27;5.78;;;4.13;;
7334;SDS011;3708;42.632;23.378;2022-09-03T13:05:03;5.07;;;4.28;;
7334;SDS011;3708;42.632;23.378;2022-09-03T13:07:32;4.32;;;3.90;;
7334;SDS011;3708;42.632;23.378;2022-09-03T13:10:04;3.63;;;3.15;;
7334;SDS011;3708;42.632;23.378;2022-09-03T13:12:33;4.07;;;3.50;;
7334;SDS011;3708;42.632;23.378;2022-09-03T13:15:16;4.32;;;3.78;;
7334;SDS011;3708;42.632;23.378;2022-09-03T13:17:53;3.90;;;3.53;;
7334;SDS011;3708;42.632;23.378;2022-09-03T13:20:36;3.80;;;3.38;;
7334;SDS011;3708;42.632;23.378;2022-09-03T13:23:14;4.07;;;3.60;;
7334;SDS011;3708;42.632;23.378;2022-09-03T13:25:53;4.32;;;3.72;;
7334;SDS011;3708;42.632;23.378;2022-09-03T13:28:33;4.88;;;3.55;;
7334;SDS011;3708;42.632;23.378;2022-09-03T13:31:19;4.97;;;3.20;;
7334;SDS011;3708;42.632;23.378;2022-09-03T13:33:52;4.20;;;3.80;;
7334;SDS011;3708;42.632;23.378;2022-09-03T13:36:25;4.25;;;3.85;;
7334;SDS011;3708;42.632;23.378;2022-09-03T13:38:57;4.32;;;3.92;;
7334;SDS011;3708;42.632;23.378;2022-09-03T13:41:32;4.85;;;4.15;;
7334;SDS011;3708;42.632;23.378;2022-09-03T13:44:05;4.20;;;3.70;;
7334;SDS011;3708;42.632;23.378;2022-09-03T13:46:42;3.80;;;3.10;;
7334;SDS011;3708;42.632;23.378;2022-09-03T13:52:10;3.38;;;3.08;;
7334;SDS011;3708;42.632;23.378;2022-09-03T13:54:48;3.17;;;2.88;;
7334;SDS011;3708;42.632;23.378;2022-09-03T13:57:22;3.40;;;2.83;;
7334;SDS011;3708;42.632;23.378;2022-09-03T13:59:56;2.90;;;2.60;;
7334;SDS011;3708;42.632;23.378;2022-09-03T14:02:30;3.00;;;2.70;;
7334;SDS011;3708;42.632;23.378;2022-09-03T14:05:07;3.38;;;3.08;;
7334;SDS011;3708;42.632;23.378;2022-09-03T14:07:50;2.90;;;2.67;;
7334;SDS011;3708;42.632;23.378;2022-09-03T14:10:26;3.08;;;2.78;;
7334;SDS011;3708;42.632;23.378;2022-09-03T14:13:05;3.00;;;2.70;;
7334;SDS011;3708;42.632;23.378;2022-09-03T14:15:41;4.43;;;2.45;;
7334;SDS011;3708;42.632;23.378;2022-09-03T14:18:28;3.30;;;3.00;;
7334;SDS011;3708;42.632;23.378;2022-09-03T14:21:06;4.97;;;3.20;;
7334;SDS011;3708;42.632;23.378;2022-09-03T14:23:42;4.45;;;2.78;;
7334;SDS011;3708;42.632;23.378;2022-09-03T14:26:16;2.72;;;2.53;;
7334;SDS011;3708;42.632;23.378;2022-09-03T14:28:56;4.57;;;2.53;;
7334;SDS011;3708;42.632;23.378;2022-09-03T14:31:36;2.88;;;2.63;;
7334;SDS011;3708;42.632;23.378;2022-09-03T14:34:27;3.15;;;2.85;;
7334;SDS011;3708;42.632;23.378;2022-09-03T14:37:04;2.90;;;2.53;;
7334;SDS011;3708;42.632;23.378;2022-09-03T14:39:43;3.10;;;2.80;;
7334;SDS011;3708;42.632;23.378;2022-09-03T14:42:31;3.63;;;3.22;;
7334;SDS011;3708;42.632;23.378;2022-09-03T14:45:20;5.45;;;3.05;;
7334;SDS011;3708;42.632;23.378;2022-09-03T14:48:23;7.05;;;3.38;;
7334;SDS011;3708;42.632;23.378;2022-09-03T14:51:04;3.38;;;3.08;;
7334;SDS011;3708;42.632;23.378;2022-09-03T14:53:49;4.10;;;3.70;;
7334;SDS011;3708;42.632;23.378;2022-09-03T14:56:37;6.28;;;3.83;;
7334;SDS011;3708;42.632;23.378;2022-09-03T14:59:23;4.55;;;3.28;;
7334;SDS011;3708;42.632;23.378;2022-09-03T15:02:21;3.80;;;3.47;;
7334;SDS011;3708;42.632;23.378;2022-09-03T15:05:11;4.13;;;3.72;;
7334;SDS011;3708;42.632;23.378;2022-09-03T15:07:50;4.00;;;3.60;;
7334;SDS011;3708;42.632;23.378;2022-09-03T15:10:24;4.75;;;3.28;;
7334;SDS011;3708;42.632;23.378;2022-09-03T15:13:07;4.97;;;3.65;;
7334;SDS011;3708;42.632;23.378;2022-09-03T15:15:47;3.35;;;3.05;;
7334;SDS011;3708;42.632;23.378;2022-09-03T15:18:28;4.95;;;3.45;;
7334;SDS011;3708;42.632;23.378;2022-09-03T15:21:05;8.27;;;3.75;;
7334;SDS011;3708;42.632;23.378;2022-09-03T15:23:50;5.50;;;3.63;;
7334;SDS011;3708;42.632;23.378;2022-09-03T15:29:25;3.45;;;3.15;;
7334;SDS011;3708;42.632;23.378;2022-09-03T15:32:01;4.85;;;2.97;;
7334;SDS011;3708;42.632;23.378;2022-09-03T15:34:45;4.38;;;3.30;;
7334;SDS011;3708;42.632;23.378;2022-09-03T15:37:24;3.97;;;3.35;;
7334;SDS011;3708;42.632;23.378;2022-09-03T15:39:59;3.80;;;3.38;;
7334;SDS011;3708;42.632;23.378;2022-09-03T15:42:29;4.18;;;3.30;;
7334;SDS011;3708;42.632;23.378;2022-09-03T15:45:01;5.07;;;3.60;;
7334;SDS011;3708;42.632;23.378;2022-09-03T15:47:40;4.30;;;3.13;;
7334;SDS011;3708;42.632;23.378;2022-09-03T15:50:23;4.05;;;3.30;;
7334;SDS011;3708;42.632;23.378;2022-09-03T15:53:01;4.95;;;3.42;;
7334;SDS011;3708;42.632;23.378;2022-09-03T15:55:40;5.43;;;3.53;;
7334;SDS011;3708;42.632;23.378;2022-09-03T15:58:13;3.55;;;3.25;;
7334;SDS011;3708;42.632;23.378;2022-09-03T16:00:52;3.80;;;3.35;;
7334;SDS011;3708;42.632;23.378;2022-09-03T16:03:32;5.45;;;4.00;;
7334;SDS011;3708;42.632;23.378;2022-09-03T16:06:15;6.00;;;4.88;;
7334;SDS011;3708;42.632;23.378;2022-09-03T16:08:51;5.78;;;4.32;;
7334;SDS011;3708;42.632;23.378;2022-09-03T16:11:23;5.15;;;4.32;;